sensor_id;sensor_type;location;lat;lon;timestamp;P1;durP1;ratioP1;P2;durP2;ratioP2
9094;SDS011;4583;49.796;9.902;2023-07-20T00:02:38;11.63;;;4.50;;
9094;SDS011;4583;49.796;9.902;2023-07-20T00:12:40;8.53;;;4.03;;
9094;SDS011;4583;49.796;9.902;2023-07-20T00:22:42;10.07;;;3.77;;
9094;SDS011;4583;49.796;9.902;2023-07-20T00:32:43;7.67;;;3.47;;
9094;SDS011;4583;49.796;9.902;2023-07-20T00:42:45;6.93;;;3.00;;
9094;SDS011;4583;49.796;9.902;2023-07-20T00:52:47;5.53;;;3.03;;
9094;SDS011;4583;49.796;9.902;2023-07-20T01:02:50;11.07;;;3.70;;
9094;SDS011;4583;49.796;9.902;2023-07-20T01:12:52;10.03;;;3.10;;
9094;SDS011;4583;49.796;9.902;2023-07-20T01:33:16;6.10;;;3.30;;
9094;SDS011;4583;49.796;9.902;2023-07-20T01:43:19;8.80;;;2.87;;
9094;SDS011;4583;49.796;9.902;2023-07-20T01:53:21;13.50;;;3.30;;
9094;SDS011;4583;49.796;9.902;2023-07-20T02:03:23;15.00;;;3.40;;
9094;SDS011;4583;49.796;9.902;2023-07-20T02:13:27;10.33;;;3.00;;
9094;SDS011;4583;49.796;9.902;2023-07-20T02:23:28;12.17;;;3.13;;
9094;SDS011;4583;49.796;9.902;2023-07-20T02:33:30;6.97;;;3.00;;
9094;SDS011;4583;49.796;9.902;2023-07-20T02:43:32;8.43;;;3.60;;
9094;SDS011;4583;49.796;9.902;2023-07-20T02:53:33;6.17;;;2.80;;
9094;SDS011;4583;49.796;9.902;2023-07-20T03:03:36;8.67;;;2.97;;
9094;SDS011;4583;49.796;9.902;2023-07-20T03:13:40;11.00;;;3.93;;
9094;SDS011;4583;49.796;9.902;2023-07-20T03:23:43;7.47;;;3.17;;
9094;SDS011;4583;49.796;9.902;2023-07-20T03:33:46;8.60;;;4.27;;
9094;SDS011;4583;49.796;9.902;2023-07-20T03:43:47;4.93;;;2.90;;
9094;SDS011;4583;49.796;9.902;2023-07-20T03:53:50;6.10;;;2.97;;
9094;SDS011;4583;49.796;9.902;2023-07-20T04:03:51;7.43;;;3.37;;
9094;SDS011;4583;49.796;9.902;2023-07-20T04:13:53;17.77;;;4.07;;
9094;SDS011;4583;49.796;9.902;2023-07-20T04:23:57;7.77;;;3.10;;
9094;SDS011;4583;49.796;9.902;2023-07-20T04:33:59;10.47;;;3.37;;
9094;SDS011;4583;49.796;9.902;2023-07-20T04:44:01;8.93;;;3.23;;
9094;SDS011;4583;49.796;9.902;2023-07-20T04:54:04;8.63;;;3.30;;
9094;SDS011;4583;49.796;9.902;2023-07-20T05:04:05;5.87;;;3.07;;
9094;SDS011;4583;49.796;9.902;2023-07-20T05:14:09;6.43;;;3.60;;
9094;SDS011;4583;49.796;9.902;2023-07-20T05:24:11;14.30;;;4.30;;
9094;SDS011;4583;49.796;9.902;2023-07-20T05:34:13;9.53;;;3.90;;
9094;SDS011;4583;49.796;9.902;2023-07-20T05:44:15;7.50;;;3.47;;
9094;SDS011;4583;49.796;9.902;2023-07-20T05:54:17;11.43;;;4.53;;
9094;SDS011;4583;49.796;9.902;2023-07-20T06:04:19;7.00;;;3.23;;
9094;SDS011;4583;49.796;9.902;2023-07-20T06:14:20;7.23;;;3.23;;
9094;SDS011;4583;49.796;9.902;2023-07-20T06:24:22;4.80;;;2.63;;
9094;SDS011;4583;49.796;9.902;2023-07-20T06:34:24;5.10;;;2.73;;
9094;SDS011;4583;49.796;9.902;2023-07-20T06:44:25;7.67;;;2.80;;
9094;SDS011;4583;49.796;9.902;2023-07-20T06:54:27;10.17;;;2.60;;
9094;SDS011;4583;49.796;9.902;2023-07-20T07:04:35;10.23;;;3.37;;
9094;SDS011;4583;49.796;9.902;2023-07-20T07:14:37;8.47;;;3.03;;
9094;SDS011;4583;49.796;9.902;2023-07-20T07:24:39;14.43;;;3.30;;
9094;SDS011;4583;49.796;9.902;2023-07-20T07:34:43;20.03;;;4.13;;
9094;SDS011;4583;49.796;9.902;2023-07-20T07:44:47;32.60;;;6.40;;
9094;SDS011;4583;49.796;9.902;2023-07-20T07:54:49;30.80;;;3.80;;
9094;SDS011;4583;49.796;9.902;2023-07-20T08:04:51;20.73;;;2.90;;
9094;SDS011;4583;49.796;9.902;2023-07-20T08:14:53;22.70;;;3.13;;
9094;SDS011;4583;49.796;9.902;2023-07-20T08:24:55;4.90;;;2.47;;
9094;SDS011;4583;49.796;9.902;2023-07-20T08:34:57;6.33;;;2.23;;
9094;SDS011;4583;49.796;9.902;2023-07-20T08:44:59;11.30;;;2.80;;
9094;SDS011;4583;49.796;9.902;2023-07-20T08:55:01;7.27;;;2.17;;
9094;SDS011;4583;49.796;9.902;2023-07-20T09:05:05;3.57;;;2.27;;
9094;SDS011;4583;49.796;9.902;2023-07-20T09:15:10;9.07;;;2.40;;
9094;SDS011;4583;49.796;9.902;2023-07-20T09:25:13;4.17;;;2.43;;
9094;SDS011;4583;49.796;9.902;2023-07-20T09:35:16;3.47;;;2.03;;
9094;SDS011;4583;49.796;9.902;2023-07-20T09:45:22;7.50;;;2.00;;
9094;SDS011;4583;49.796;9.902;2023-07-20T09:55:43;4.90;;;2.03;;
9094;SDS011;4583;49.796;9.902;2023-07-20T10:05:47;3.67;;;1.97;;
9094;SDS011;4583;49.796;9.902;2023-07-20T10:16:07;3.87;;;1.77;;
9094;SDS011;4583;49.796;9.902;2023-07-20T10:26:12;3.00;;;2.00;;
9094;SDS011;4583;49.796;9.902;2023-07-20T10:36:15;24.80;;;3.50;;
9094;SDS011;4583;49.796;9.902;2023-07-20T10:47:02;24.33;;;2.53;;
9094;SDS011;4583;49.796;9.902;2023-07-20T10:56:42;6.03;;;1.80;;
9094;SDS011;4583;49.796;9.902;2023-07-20T11:06:45;3.03;;;1.97;;
9094;SDS011;4583;49.796;9.902;2023-07-20T11:16:48;4.87;;;2.30;;
9094;SDS011;4583;49.796;9.902;2023-07-20T11:26:54;4.40;;;2.03;;
9094;SDS011;4583;49.796;9.902;2023-07-20T11:36:56;2.87;;;1.80;;
9094;SDS011;4583;49.796;9.902;2023-07-20T11:47:03;6.37;;;2.90;;
9094;SDS011;4583;49.796;9.902;2023-07-20T11:57:05;5.80;;;1.67;;
9094;SDS011;4583;49.796;9.902;2023-07-20T12:07:07;4.53;;;1.87;;
9094;SDS011;4583;49.796;9.902;2023-07-20T12:17:09;5.40;;;2.20;;
9094;SDS011;4583;49.796;9.902;2023-07-20T12:27:13;3.93;;;2.00;;
9094;SDS011;4583;49.796;9.902;2023-07-20T12:37:17;5.27;;;1.80;;
9094;SDS011;4583;49.796;9.902;2023-07-20T12:47:19;3.63;;;2.33;;
9094;SDS011;4583;49.796;9.902;2023-07-20T12:57:21;5.00;;;2.07;;
9094;SDS011;4583;49.796;9.902;2023-07-20T13:07:29;4.97;;;1.50;;
9094;SDS011;4583;49.796;9.902;2023-07-20T13:17:36;4.70;;;1.70;;
9094;SDS011;4583;49.796;9.902;2023-07-20T13:27:42;6.87;;;2.23;;
9094;SDS011;4583;49.796;9.902;2023-07-20T13:37:43;6.50;;;1.80;;
9094;SDS011;4583;49.796;9.902;2023-07-20T13:47:46;1.87;;;1.50;;
9094;SDS011;4583;49.796;9.902;2023-07-20T13:57:51;3.23;;;2.23;;
9094;SDS011;4583;49.796;9.902;2023-07-20T14:07:53;1.77;;;1.23;;
9094;SDS011;4583;49.796;9.902;2023-07-20T14:17:55;5.33;;;1.80;;
9094;SDS011;4583;49.796;9.902;2023-07-20T14:27:56;5.03;;;1.37;;
9094;SDS011;4583;49.796;9.902;2023-07-20T14:37:58;9.80;;;3.03;;
9094;SDS011;4583;49.796;9.902;2023-07-20T14:48:00;3.03;;;1.50;;
9094;SDS011;4583;49.796;9.902;2023-07-20T14:58:02;6.43;;;1.80;;
9094;SDS011;4583;49.796;9.902;2023-07-20T15:08:04;2.67;;;1.50;;
9094;SDS011;4583;49.796;9.902;2023-07-20T15:18:07;4.00;;;1.80;;
9094;SDS011;4583;49.796;9.902;2023-07-20T15:28:09;4.00;;;2.17;;
9094;SDS011;4583;49.796;9.902;2023-07-20T15:38:10;6.27;;;1.57;;
9094;SDS011;4583;49.796;9.902;2023-07-20T15:48:12;7.97;;;2.07;;
9094;SDS011;4583;49.796;9.902;2023-07-20T15:58:14;3.73;;;1.87;;
9094;SDS011;4583;49.796;9.902;2023-07-20T16:08:16;3.50;;;2.03;;
9094;SDS011;4583;49.796;9.902;2023-07-20T16:18:18;2.88;;;1.52;;
9094;SDS011;4583;49.796;9.902;2023-07-20T16:28:20;2.88;;;1.75;;
9094;SDS011;4583;49.796;9.902;2023-07-20T16:38:21;2.63;;;1.50;;
9094;SDS011;4583;49.796;9.902;2023-07-20T16:48:23;3.35;;;1.48;;
9094;SDS011;4583;49.796;9.902;2023-07-20T16:58:26;2.72;;;1.77;;
9094;SDS011;4583;49.796;9.902;2023-07-20T17:08:29;4.55;;;1.52;;
9094;SDS011;4583;49.796;9.902;2023-07-20T17:18:33;1.55;;;1.45;;
9094;SDS011;4583;49.796;9.902;2023-07-20T17:28:35;1.50;;;1.40;;
9094;SDS011;4583;49.796;9.902;2023-07-20T17:38:43;1.95;;;1.40;;
9094;SDS011;4583;49.796;9.902;2023-07-20T17:48:45;3.10;;;1.48;;
9094;SDS011;4583;49.796;9.902;2023-07-20T17:58:47;2.83;;;1.70;;
9094;SDS011;4583;49.796;9.902;2023-07-20T18:08:48;6.15;;;1.60;;
9094;SDS011;4583;49.796;9.902;2023-07-20T18:18:50;2.60;;;1.47;;
9094;SDS011;4583;49.796;9.902;2023-07-20T18:28:52;1.77;;;1.50;;
9094;SDS011;4583;49.796;9.902;2023-07-20T18:38:54;3.63;;;1.77;;
9094;SDS011;4583;49.796;9.902;2023-07-20T18:48:58;5.50;;;2.40;;
9094;SDS011;4583;49.796;9.902;2023-07-20T18:59:00;6.47;;;2.50;;
9094;SDS011;4583;49.796;9.902;2023-07-20T19:09:02;4.40;;;2.10;;
9094;SDS011;4583;49.796;9.902;2023-07-20T19:19:04;3.77;;;2.43;;
9094;SDS011;4583;49.796;9.902;2023-07-20T19:29:06;8.77;;;2.73;;
9094;SDS011;4583;49.796;9.902;2023-07-20T19:39:07;6.03;;;2.30;;
9094;SDS011;4583;49.796;9.902;2023-07-20T19:49:10;5.70;;;2.60;;
9094;SDS011;4583;49.796;9.902;2023-07-20T19:59:11;3.67;;;3.17;;
9094;SDS011;4583;49.796;9.902;2023-07-20T20:09:17;7.90;;;2.40;;
9094;SDS011;4583;49.796;9.902;2023-07-20T20:19:19;4.27;;;2.70;;
9094;SDS011;4583;49.796;9.902;2023-07-20T20:29:21;4.37;;;2.30;;
9094;SDS011;4583;49.796;9.902;2023-07-20T20:39:23;5.33;;;2.43;;
9094;SDS011;4583;49.796;9.902;2023-07-20T20:49:26;7.10;;;2.50;;
9094;SDS011;4583;49.796;9.902;2023-07-20T20:59:29;3.70;;;2.53;;
9094;SDS011;4583;49.796;9.902;2023-07-20T21:09:31;5.47;;;2.30;;
9094;SDS011;4583;49.796;9.902;2023-07-20T21:19:34;3.53;;;2.60;;
9094;SDS011;4583;49.796;9.902;2023-07-20T21:29:36;5.47;;;2.67;;
9094;SDS011;4583;49.796;9.902;2023-07-20T21:39:38;3.17;;;2.47;;
9094;SDS011;4583;49.796;9.902;2023-07-20T21:49:39;3.47;;;2.70;;
9094;SDS011;4583;49.796;9.902;2023-07-20T21:59:41;2.87;;;2.40;;
9094;SDS011;4583;49.796;9.902;2023-07-20T22:09:43;5.83;;;2.90;;
9094;SDS011;4583;49.796;9.902;2023-07-20T22:19:44;5.03;;;2.30;;
9094;SDS011;4583;49.796;9.902;2023-07-20T22:29:46;3.30;;;2.60;;
9094;SDS011;4583;49.796;9.902;2023-07-20T22:39:48;2.60;;;2.23;;
9094;SDS011;4583;49.796;9.902;2023-07-20T22:49:50;4.97;;;2.47;;
9094;SDS011;4583;49.796;9.902;2023-07-20T22:59:51;2.87;;;2.50;;
9094;SDS011;4583;49.796;9.902;2023-07-20T23:09:53;4.43;;;2.90;;
9094;SDS011;4583;49.796;9.902;2023-07-20T23:19:56;2.60;;;2.30;;
9094;SDS011;4583;49.796;9.902;2023-07-20T23:29:58;3.57;;;2.33;;
9094;SDS011;4583;49.796;9.902;2023-07-20T23:40:00;3.90;;;2.57;;
9094;SDS011;4583;49.796;9.902;2023-07-20T23:50:02;2.67;;;2.40;;
